Time;durP1;ratioP1;P1;durP2;ratioP2;P2;SDS_P1;SDS_P2;PMS_P1;PMS_P2;Temp;Humidity;BMP_temperature;BMP_pressure;BME280_temperature;BME280_humidity;BME280_pressure;Samples;Min_cycle;Max_cycle;Signal;HPM_P1;HPM_P2
2023/07/11 00:02:50;;;;;;;7.40;4.05;;;19.50;1.00;;;;;;6246522;23;20027;-88
2023/07/11 00:05:38;;;;;;;9.32;4.72;;;19.50;1.00;;;;;;6246372;23;20350;-87
2023/07/11 00:08:28;;;;;;;5.45;4.18;;;19.50;1.00;;;;;;6246215;23;20028;-90
2023/07/11 00:11:17;;;;;;;6.97;4.90;;;19.40;1.00;;;;;;6244895;23;20038;-85
2023/07/11 00:14:04;;;;;;;6.18;4.53;;;19.40;1.00;;;;;;6245114;23;20065;-88
2023/07/11 00:16:52;;;;;;;6.60;4.82;;;19.30;1.00;;;;;;6225057;23;20024;-88
2023/07/11 00:19:48;;;;;;;5.65;4.40;;;19.30;1.00;;;;;;6223781;23;20090;-87
2023/07/11 00:22:35;;;;;;;8.85;4.75;;;19.30;1.00;;;;;;6246442;23;20547;-87
2023/07/11 00:25:23;;;;;;;7.40;4.70;;;19.20;3.50;;;;;;6246071;23;20320;-88
2023/07/11 00:28:12;;;;;;;9.32;4.70;;;19.20;13.20;;;;;;6245865;23;20436;-87
2023/07/11 00:31:00;;;;;;;9.50;4.50;;;19.00;19.60;;;;;;6245065;23;20024;-88
2023/07/11 00:33:48;;;;;;;7.05;4.70;;;19.00;29.80;;;;;;6246038;23;20020;-87
2023/07/11 00:36:35;;;;;;;10.48;5.05;;;18.80;46.00;;;;;;6245533;23;20023;-88
2023/07/11 00:39:23;;;;;;;8.65;4.80;;;18.60;66.90;;;;;;6244942;23;20035;-89
2023/07/11 00:42:10;;;;;;;9.40;5.10;;;18.50;90.60;;;;;;6245760;23;20039;-87
2023/07/11 00:45:02;;;;;;;9.02;4.85;;;18.40;99.90;;;;;;6224518;23;20359;-88
2023/07/11 00:47:50;;;;;;;9.63;5.38;;;18.40;99.90;;;;;;6245511;23;20028;-88
2023/07/11 00:50:39;;;;;;;6.57;4.63;;;18.50;99.90;;;;;;6223948;23;20043;-88
2023/07/11 00:53:28;;;;;;;7.78;4.78;;;18.40;99.90;;;;;;6224963;23;20024;-88
2023/07/11 00:56:21;;;;;;;7.35;4.95;;;18.30;99.90;;;;;;6245608;23;20039;-88
2023/07/11 00:59:09;;;;;;;9.32;4.85;;;18.30;99.90;;;;;;6247167;23;20063;-88
2023/07/11 01:02:06;;;;;;;7.43;5.30;;;18.30;99.90;;;;;;6247359;23;20020;-87
2023/07/11 01:04:55;;;;;;;7.30;4.85;;;18.40;99.90;;;;;;6246320;23;20027;-87
2023/07/11 01:07:42;;;;;;;6.68;4.72;;;18.30;99.90;;;;;;6248433;23;20099;-88
2023/07/11 01:10:29;;;;;;;6.20;4.63;;;18.20;99.90;;;;;;6226454;23;20443;-88
2023/07/11 01:13:16;;;;;;;6.63;4.50;;;18.20;99.90;;;;;;6225388;23;20058;-88
2023/07/11 01:16:04;;;;;;;8.88;5.28;;;18.20;99.90;;;;;;6244770;23;20020;-87
2023/07/11 01:18:51;;;;;;;6.18;4.80;;;18.20;99.90;;;;;;6245239;23;20396;-88
2023/07/11 01:21:39;;;;;;;7.82;4.57;;;18.30;99.90;;;;;;6245016;23;20032;-87
2023/07/11 01:24:26;;;;;;;7.63;5.40;;;18.20;99.90;;;;;;6225030;23;20032;-90
2023/07/11 01:27:13;;;;;;;5.75;4.43;;;18.20;99.90;;;;;;6247949;23;20028;-91
2023/07/11 01:30:05;;;;;;;8.02;5.38;;;18.20;99.90;;;;;;6247115;23;20471;-89
2023/07/11 01:32:53;;;;;;;10.55;4.93;;;18.20;99.90;;;;;;6245954;23;20024;-91
2023/07/11 01:35:43;;;;;;;8.27;5.18;;;18.10;99.90;;;;;;6221854;23;20099;-88
2023/07/11 01:38:31;;;;;;;8.32;4.80;;;18.10;99.90;;;;;;6223654;23;20031;-90
2023/07/11 01:41:18;;;;;;;9.23;5.40;;;18.20;99.90;;;;;;6245120;23;20024;-90
2023/07/11 01:44:05;;;;;;;6.32;4.82;;;18.10;99.90;;;;;;6247454;23;20111;-89
2023/07/11 01:46:53;;;;;;;10.40;5.68;;;18.00;99.90;;;;;;6245959;23;20035;-90
2023/07/11 01:49:40;;;;;;;8.88;5.75;;;18.00;99.90;;;;;;6244406;23;20346;-89
2023/07/11 01:52:27;;;;;;;12.10;6.57;;;17.90;99.90;;;;;;6226021;23;20027;-89
2023/07/11 01:55:19;;;;;;;9.97;5.17;;;17.80;99.90;;;;;;6246242;23;20056;-89
2023/07/11 01:58:06;;;;;;;7.25;4.88;;;17.90;99.90;;;;;;6245451;23;20088;-89
2023/07/11 02:00:55;;;;;;;11.43;5.78;;;17.90;99.90;;;;;;6245572;23;20088;-89
2023/07/11 02:03:45;;;;;;;12.75;6.47;;;17.80;99.90;;;;;;6246552;23;20024;-90
2023/07/11 02:06:35;;;;;;;8.88;6.10;;;17.70;99.90;;;;;;6224418;23;20027;-90
2023/07/11 02:09:23;;;;;;;10.20;6.57;;;17.80;99.90;;;;;;6244307;23;20054;-89
2023/07/11 02:12:11;;;;;;;12.00;6.60;;;17.80;99.90;;;;;;6247145;23;20031;-89
2023/07/11 02:14:58;;;;;;;11.02;6.63;;;17.80;99.90;;;;;;6225016;23;20430;-89
2023/07/11 02:17:45;;;;;;;14.55;6.95;;;17.80;99.90;;;;;;6246262;23;20024;-90
2023/07/11 02:20:33;;;;;;;10.70;5.97;;;17.80;99.90;;;;;;6226104;23;20028;-91
2023/07/11 02:23:21;;;;;;;9.55;6.05;;;17.70;99.90;;;;;;6227056;23;20017;-89
2023/07/11 02:26:11;;;;;;;11.52;6.28;;;17.70;99.90;;;;;;6249900;23;20035;-90
2023/07/11 02:28:58;;;;;;;9.63;6.20;;;17.60;99.90;;;;;;6249439;23;20122;-87
2023/07/11 02:31:45;;;;;;;10.38;5.97;;;17.70;99.90;;;;;;6226130;23;20021;-90
2023/07/11 02:34:33;;;;;;;8.35;6.22;;;17.60;99.90;;;;;;6250103;23;20032;-90
2023/07/11 02:37:23;;;;;;;10.38;6.15;;;17.60;99.90;;;;;;6247830;23;20093;-90
2023/07/11 02:40:13;;;;;;;8.40;6.13;;;17.60;99.90;;;;;;6228626;23;20020;-87
2023/07/11 02:43:03;;;;;;;11.30;6.38;;;17.60;99.90;;;;;;6225078;23;20028;-90
2023/07/11 02:45:51;;;;;;;9.13;6.10;;;17.60;99.90;;;;;;6248237;23;20313;-91
2023/07/11 02:48:38;;;;;;;13.38;6.50;;;17.60;99.90;;;;;;6253808;23;20020;-89
2023/07/11 02:51:25;;;;;;;12.10;6.55;;;17.60;99.90;;;;;;6252891;23;20024;-90
2023/07/11 02:54:13;;;;;;;11.20;6.53;;;17.60;99.90;;;;;;6254317;23;20099;-90
2023/07/11 02:57:00;;;;;;;9.18;6.38;;;17.60;99.90;;;;;;6248209;23;20494;-90
2023/07/11 02:59:47;;;;;;;9.23;5.90;;;17.60;99.90;;;;;;6246452;23;20206;-89
2023/07/11 03:02:37;;;;;;;9.77;5.60;;;17.60;99.90;;;;;;6248753;23;20028;-90
2023/07/11 03:05:24;;;;;;;10.77;6.40;;;17.70;99.90;;;;;;6224338;23;20028;-89
2023/07/11 03:08:12;;;;;;;11.63;6.47;;;17.80;99.90;;;;;;6225581;23;20037;-89
2023/07/11 03:11:00;;;;;;;9.30;5.32;;;17.80;99.90;;;;;;6245142;23;20024;-90
2023/07/11 03:13:47;;;;;;;8.73;6.40;;;17.70;99.90;;;;;;6245470;23;20027;-89
2023/07/11 03:16:37;;;;;;;11.02;6.20;;;17.70;99.90;;;;;;6245408;23;20031;-90
2023/07/11 03:19:24;;;;;;;7.60;5.70;;;17.70;99.90;;;;;;6245403;23;20099;-91
2023/07/11 03:22:11;;;;;;;9.63;6.10;;;17.70;99.90;;;;;;6224592;23;20035;-91
2023/07/11 03:25:01;;;;;;;10.18;6.25;;;17.80;99.90;;;;;;6248212;23;20035;-91
2023/07/11 03:27:50;;;;;;;9.35;6.00;;;17.90;99.90;;;;;;6246271;23;20165;-89
2023/07/11 03:30:37;;;;;;;9.73;5.80;;;17.90;99.90;;;;;;6247133;23;20031;-90
2023/07/11 03:33:25;;;;;;;7.72;6.10;;;17.80;99.90;;;;;;6224327;23;20035;-90
2023/07/11 03:36:14;;;;;;;8.07;5.35;;;17.80;99.90;;;;;;6245928;23;20032;-88
2023/07/11 03:39:04;;;;;;;8.35;5.35;;;17.90;99.90;;;;;;6246314;23;20028;-90
2023/07/11 03:41:54;;;;;;;8.50;5.60;;;17.90;99.90;;;;;;6245345;23;20024;-91
2023/07/11 03:44:45;;;;;;;10.07;5.70;;;17.90;99.90;;;;;;6226113;23;20407;-90
2023/07/11 03:47:34;;;;;;;8.05;5.22;;;17.90;99.90;;;;;;6244745;23;20114;-91
2023/07/11 03:50:22;;;;;;;8.55;6.00;;;17.90;99.90;;;;;;6246324;23;20028;-89
2023/07/11 03:53:09;;;;;;;8.73;6.22;;;18.00;99.90;;;;;;6247267;23;20390;-91
2023/07/11 03:55:57;;;;;;;8.23;6.00;;;18.00;99.90;;;;;;6225560;23;20082;-90
2023/07/11 03:58:44;;;;;;;8.27;6.78;;;18.00;99.90;;;;;;6223183;23;20422;-90
2023/07/11 04:02:24;;;;;;;10.63;6.43;;;18.10;99.90;;;;;;6244791;23;20035;-90
2023/07/11 04:05:16;;;;;;;9.95;6.18;;;18.10;99.90;;;;;;6248240;23;20020;-89
2023/07/11 04:08:04;;;;;;;13.57;6.97;;;18.00;99.90;;;;;;6247334;23;20278;-88
2023/07/11 04:10:51;;;;;;;11.90;6.22;;;18.00;99.90;;;;;;6247137;23;20024;-90
2023/07/11 04:13:38;;;;;;;14.25;9.32;;;17.90;99.90;;;;;;6247273;23;20028;-90
2023/07/11 04:16:26;;;;;;;8.95;6.45;;;17.90;99.90;;;;;;6222463;23;20039;-89
2023/07/11 04:19:13;;;;;;;10.05;6.05;;;18.00;99.90;;;;;;6244077;23;20055;-86
2023/07/11 04:22:00;;;;;;;9.85;5.38;;;18.10;99.90;;;;;;6246522;23;20107;-86
2023/07/11 04:24:47;;;;;;;8.70;5.57;;;18.20;99.90;;;;;;6245449;23;20424;-86
2023/07/11 04:27:35;;;;;;;9.25;5.22;;;18.30;99.90;;;;;;6243760;23;20032;-83
2023/07/11 04:30:22;;;;;;;12.70;6.40;;;18.50;99.90;;;;;;6244796;23;20028;-84
2023/07/11 04:33:10;;;;;;;8.05;5.93;;;18.50;99.90;;;;;;6245984;23;20036;-86
2023/07/11 04:36:12;;;;;;;10.52;5.95;;;18.50;99.90;;;;;;6224353;23;20024;-82
2023/07/11 04:39:00;;;;;;;;;;;18.60;99.90;;;;;;6244521;23;20032;-82
2023/07/11 04:41:47;;;;;;;13.30;5.80;;;18.60;99.90;;;;;;6243272;23;20325;-81
2023/07/11 04:44:39;;;;;;;9.70;5.80;;;18.60;99.90;;;;;;6244335;23;20028;-82
2023/07/11 04:47:27;;;;;;;12.73;6.10;;;18.60;99.90;;;;;;6222192;23;20035;-82
2023/07/11 04:50:14;;;;;;;9.52;6.47;;;18.70;99.90;;;;;;6244734;23;20016;-83
2023/07/11 04:53:03;;;;;;;12.88;6.85;;;18.70;99.90;;;;;;6246912;23;20035;-84
2023/07/11 04:56:02;;;;;;;14.90;7.05;;;18.60;99.90;;;;;;6223365;23;20028;-82
2023/07/11 04:58:49;;;;;;;11.07;6.05;;;18.70;99.90;;;;;;6245408;23;20046;-82
2023/07/11 05:01:38;;;;;;;8.63;5.78;;;18.80;99.90;;;;;;6246062;23;20039;-82
2023/07/11 05:04:26;;;;;;;11.40;6.40;;;19.00;99.90;;;;;;6243829;23;20116;-81
2023/07/11 05:07:14;;;;;;;11.75;6.57;;;19.00;99.90;;;;;;6245329;23;20110;-89
2023/07/11 05:10:01;;;;;;;9.82;6.10;;;19.20;99.90;;;;;;6246866;23;20300;-89
2023/07/11 05:12:51;;;;;;;12.60;6.03;;;19.30;99.90;;;;;;6239059;23;20055;-89
2023/07/11 05:15:39;;;;;;;8.70;6.20;;;19.40;99.90;;;;;;6242643;23;20040;-89
2023/07/11 05:18:29;;;;;;;9.95;5.72;;;19.60;99.90;;;;;;6238739;23;20023;-88
2023/07/11 05:21:18;;;;;;;12.48;5.65;;;19.80;99.90;;;;;;6234099;23;20024;-89
2023/07/11 05:24:07;;;;;;;14.07;5.85;;;20.00;99.90;;;;;;6254867;23;20078;-91
2023/07/11 05:26:54;;;;;;;9.07;5.25;;;20.20;99.90;;;;;;6235225;23;20059;-87
2023/07/11 05:29:41;;;;;;;12.38;6.00;;;20.30;99.10;;;;;;6254924;23;20028;-87
2023/07/11 05:32:32;;;;;;;8.35;5.18;;;20.50;89.80;;;;;;6250665;23;20560;-89
2023/07/11 05:35:21;;;;;;;12.48;5.90;;;20.70;56.60;;;;;;6226655;23;20051;-90
2023/07/11 05:38:09;;;;;;;11.70;6.28;;;20.90;50.20;;;;;;6246832;23;20032;-89
2023/07/11 05:40:56;;;;;;;11.45;6.22;;;20.90;57.70;;;;;;6251018;23;20020;-90
2023/07/11 05:43:44;;;;;;;10.27;7.25;;;20.90;62.20;;;;;;6247476;23;20034;-91
2023/07/11 05:46:32;;;;;;;9.15;5.88;;;20.90;71.00;;;;;;6246408;23;20034;-89
2023/07/11 05:49:19;;;;;;;7.63;5.95;;;21.00;64.00;;;;;;6223866;23;20020;-84
2023/07/11 05:52:06;;;;;;;11.43;6.38;;;21.10;46.50;;;;;;6244901;23;20034;-83
2023/07/11 05:54:54;;;;;;;10.98;5.55;;;21.20;41.40;;;;;;6246934;23;20126;-83
2023/07/11 05:57:41;;;;;;;9.52;6.30;;;21.30;27.10;;;;;;6248292;23;20024;-84
2023/07/11 06:00:28;;;;;;;10.98;6.85;;;21.40;29.50;;;;;;6245769;23;20028;-84
2023/07/11 06:03:15;;;;;;;10.55;6.10;;;21.40;36.40;;;;;;6253124;23;20030;-84
2023/07/11 06:06:05;;;;;;;14.82;6.80;;;21.50;35.30;;;;;;6245665;23;20432;-85
2023/07/11 06:08:52;;;;;;;16.23;6.90;;;21.50;39.90;;;;;;6244808;23;20084;-84
2023/07/11 06:11:40;;;;;;;13.02;6.22;;;21.70;30.20;;;;;;6244835;23;20032;-84
2023/07/11 06:14:28;;;;;;;12.60;5.90;;;21.80;13.90;;;;;;6247444;23;20032;-83
2023/07/11 06:17:16;;;;;;;6.93;5.47;;;22.10;1.00;;;;;;6244749;23;20037;-83
2023/07/11 06:20:09;;;;;;;11.15;6.13;;;22.20;1.00;;;;;;6223914;23;20020;-84
2023/07/11 06:22:56;;;;;;;10.20;6.07;;;22.40;1.00;;;;;;6248167;23;20020;-85
2023/07/11 06:25:43;;;;;;;8.48;5.97;;;22.60;1.00;;;;;;6244773;23;20103;-83
2023/07/11 06:28:33;;;;;;;10.00;6.13;;;22.70;1.00;;;;;;6245486;23;20024;-86
2023/07/11 06:31:24;;;;;;;8.23;5.70;;;22.90;1.00;;;;;;6246727;23;20032;-82
2023/07/11 06:34:12;;;;;;;8.57;5.50;;;23.00;1.00;;;;;;6225143;23;20073;-84
2023/07/11 06:37:01;;;;;;;10.05;5.70;;;23.20;1.00;;;;;;6246772;23;20039;-85
2023/07/11 06:39:48;;;;;;;9.02;5.53;;;23.40;1.00;;;;;;6244990;23;20020;-85
2023/07/11 06:42:36;;;;;;;15.57;6.60;;;23.60;1.00;;;;;;6223465;23;20020;-85
2023/07/11 06:45:23;;;;;;;7.03;5.40;;;23.80;1.00;;;;;;6224411;23;20031;-85
2023/07/11 06:48:11;;;;;;;8.40;5.55;;;24.10;1.00;;;;;;6223993;23;20424;-84
2023/07/11 06:51:00;;;;;;;10.52;5.60;;;24.10;1.00;;;;;;6245622;23;20031;-84
2023/07/11 06:53:49;;;;;;;11.38;5.97;;;24.30;1.00;;;;;;6245257;23;20035;-85
2023/07/11 06:56:36;;;;;;;13.00;5.50;;;24.60;1.00;;;;;;6244475;23;20035;-84
2023/07/11 06:59:26;;;;;;;10.73;4.93;;;24.90;1.00;;;;;;6244358;23;20035;-84
2023/07/11 07:02:14;;;;;;;8.07;4.95;;;25.00;1.00;;;;;;6228175;23;20371;-83
2023/07/11 07:05:01;;;;;;;10.32;5.57;;;25.20;1.00;;;;;;6249273;23;20060;-85
2023/07/11 07:07:49;;;;;;;6.22;4.80;;;25.50;1.00;;;;;;6246094;23;20028;-83
2023/07/11 07:10:52;;;;;;;8.77;5.63;;;25.90;1.00;;;;;;6227160;23;20031;-86
2023/07/11 07:13:41;;;;;;;9.80;5.22;;;26.10;1.00;;;;;;6222848;23;20028;-83
2023/07/11 07:16:46;;;;;;;14.18;4.82;;;26.40;1.00;;;;;;6245213;23;20020;-86
2023/07/11 07:19:33;;;;;;;9.48;4.43;;;26.90;1.00;;;;;;6222584;23;20077;-83
2023/07/11 07:22:20;;;;;;;9.00;5.07;;;27.10;1.00;;;;;;6245272;23;20031;-85
2023/07/11 07:25:08;;;;;;;24.63;6.45;;;27.30;1.00;;;;;;6245441;23;20028;-83
2023/07/11 07:28:09;;;;;;;7.20;4.68;;;27.70;1.00;;;;;;6248954;23;20028;-84
2023/07/11 07:30:57;;;;;;;7.00;4.75;;;27.80;1.00;;;;;;6246820;23;20028;-88
2023/07/11 07:33:45;;;;;;;7.32;4.60;;;28.10;1.00;;;;;;6246133;23;20040;-85
2023/07/11 07:36:34;;;;;;;7.43;4.40;;;28.40;1.00;;;;;;6246379;23;20103;-85
2023/07/11 07:39:22;;;;;;;6.03;4.35;;;29.00;1.00;;;;;;6229450;23;20143;-86
2023/07/11 07:42:09;;;;;;;7.93;4.68;;;29.60;1.00;;;;;;6251659;23;20047;-87
2023/07/11 07:44:57;;;;;;;6.43;4.30;;;29.70;1.00;;;;;;6250803;23;20028;-88
2023/07/11 07:47:44;;;;;;;6.15;4.45;;;30.30;1.00;;;;;;6250735;23;20024;-88
2023/07/11 07:50:34;;;;;;;7.25;4.82;;;31.00;1.00;;;;;;6250558;23;20130;-87
2023/07/11 07:53:21;;;;;;;8.38;4.50;;;30.50;1.00;;;;;;6255236;23;20371;-85
2023/07/11 07:56:17;;;;;;;8.07;4.97;;;31.00;1.00;;;;;;6258536;22;20038;-86
2023/07/11 07:59:07;;;;;;;5.72;4.25;;;31.90;1.00;;;;;;6258204;23;20028;-85
2023/07/11 08:01:55;;;;;;;6.15;4.50;;;31.70;1.00;;;;;;6237182;23;20024;-87
2023/07/11 08:04:42;;;;;;;5.65;4.13;;;31.50;1.00;;;;;;6262721;23;20083;-87
2023/07/11 08:07:32;;;;;;;22.05;6.85;;;31.50;1.00;;;;;;6258786;23;20039;-85
2023/07/11 08:10:20;;;;;;;7.60;4.75;;;31.00;1.00;;;;;;6250021;23;20032;-86
2023/07/11 08:13:07;;;;;;;5.97;4.57;;;31.00;1.00;;;;;;6244891;23;20304;-85
2023/07/11 08:15:54;;;;;;;10.50;4.82;;;30.60;1.00;;;;;;6244932;23;20423;-87
2023/07/11 08:18:41;;;;;;;7.13;5.07;;;30.40;1.00;;;;;;6245178;23;20082;-90
2023/07/11 08:21:34;;;;;;;6.90;4.47;;;30.80;1.00;;;;;;6244734;23;20031;-87
2023/07/11 08:24:21;;;;;;;6.10;4.70;;;31.40;1.00;;;;;;6246057;23;20027;-88
2023/07/11 08:27:08;;;;;;;6.72;4.68;;;31.60;1.00;;;;;;6245284;23;20314;-89
2023/07/11 08:29:57;;;;;;;8.63;4.50;;;32.80;1.00;;;;;;6263922;23;20051;-85
2023/07/11 08:32:44;;;;;;;5.85;4.88;;;33.20;1.00;;;;;;6254602;23;20023;-88
2023/07/11 08:35:31;;;;;;;7.85;4.00;;;33.30;1.00;;;;;;6246996;23;20435;-90
2023/07/11 08:38:18;;;;;;;7.75;5.07;;;32.80;1.00;;;;;;6247785;23;20024;-90
2023/07/11 08:41:53;;;;;;;8.20;5.43;;;32.60;1.00;;;;;;6246591;23;20036;-87
2023/07/11 08:44:55;;;;;;;6.68;4.80;;;32.00;1.00;;;;;;6076927;23;20030;-88
2023/07/11 08:47:55;;;;;;;12.60;4.65;;;32.10;1.00;;;;;;6095156;23;20033;-89
2023/07/11 08:51:06;;;;;;;8.00;5.10;;;32.90;1.00;;;;;;6245705;23;20059;-88
2023/07/11 08:54:21;;;;;;;9.80;5.20;;;32.60;1.00;;;;;;6224697;23;20055;-88
2023/07/11 08:57:09;;;;;;;8.02;4.88;;;32.60;1.00;;;;;;6223685;23;20086;-88
2023/07/11 09:00:05;;;;;;;7.53;5.20;;;32.10;1.00;;;;;;6245218;23;20032;-86
2023/07/11 09:03:01;;;;;;;9.15;4.65;;;31.90;1.00;;;;;;6224198;23;20024;-88
2023/07/11 09:05:56;;;;;;;7.90;5.07;;;31.80;1.00;;;;;;6245499;23;20116;-90
2023/07/11 09:08:45;;;;;;;11.23;5.18;;;32.20;1.00;;;;;;6245395;23;20414;-85
2023/07/11 09:12:04;;;;;;;6.22;4.97;;;32.00;1.00;;;;;;6245140;23;20099;-90
2023/07/11 09:15:24;;;;;;;6.95;4.47;;;32.40;1.00;;;;;;6222186;23;20034;-86
2023/07/11 09:18:39;;;;;;;8.32;4.70;;;32.80;1.00;;;;;;6244551;23;20546;-85
2023/07/11 09:21:32;;;;;;;10.27;4.50;;;33.50;1.00;;;;;;6223962;23;20020;-87
2023/07/11 09:24:51;;;;;;;8.65;4.47;;;34.20;1.00;;;;;;6246866;23;20036;-89
2023/07/11 09:27:48;;;;;;;9.60;4.78;;;34.60;1.00;;;;;;6247391;23;20027;-89
2023/07/11 09:30:45;;;;;;;7.53;4.75;;;34.20;1.00;;;;;;6249550;23;20127;-87
2023/07/11 09:33:53;;;;;;;8.68;5.05;;;33.50;1.00;;;;;;6228336;23;20426;-88
2023/07/11 09:36:41;;;;;;;5.57;4.63;;;33.20;1.00;;;;;;6247596;23;20024;-88
2023/07/11 09:39:31;;;;;;;8.88;5.22;;;33.50;1.00;;;;;;6249028;23;20028;-87
2023/07/11 09:42:37;;;;;;;6.82;5.10;;;32.90;1.00;;;;;;6247178;23;20019;-87
2023/07/11 09:45:31;;;;;;;7.72;4.63;;;33.20;1.00;;;;;;6247916;23;20336;-87
2023/07/11 09:48:28;;;;;;;5.63;4.43;;;33.40;1.00;;;;;;6246411;23;20035;-87
2023/07/11 09:51:42;;;;;;;7.90;4.72;;;34.60;99.90;;;;;;6246727;23;20112;-89
2023/07/11 09:54:46;;;;;;;8.10;4.78;;;36.20;99.90;;;;;;6247037;23;20123;-89
2023/07/11 09:57:53;;;;;;;9.07;4.75;;;35.40;99.90;;;;;;6246530;23;20039;-89
2023/07/11 10:00:54;;;;;;;6.95;5.03;;;34.50;1.00;;;;;;6248853;23;20020;-88
2023/07/11 10:03:47;;;;;;;8.70;4.45;;;35.60;99.90;;;;;;6247514;23;20028;-88
2023/07/11 10:06:44;;;;;;;7.53;4.45;;;37.10;99.90;;;;;;6248954;23;20048;-87
2023/07/11 10:09:43;;;;;;;6.18;4.15;;;38.20;99.90;;;;;;6227678;23;20104;-87
2023/07/11 10:12:31;;;;;;;7.47;4.75;;;38.40;99.90;;;;;;6248239;23;20039;-88
2023/07/11 10:15:18;;;;;;;5.93;4.72;;;38.40;99.90;;;;;;6249822;23;20100;-86
2023/07/11 10:18:16;;;;;;;6.07;4.57;;;37.10;99.90;;;;;;6251189;23;20024;-87
2023/07/11 10:21:13;;;;;;;9.05;5.00;;;36.30;99.90;;;;;;6252043;23;20032;-84
2023/07/11 10:24:01;;;;;;;9.30;5.15;;;35.70;99.90;;;;;;6251191;23;20066;-87
2023/07/11 10:26:54;;;;;;;6.75;4.50;;;36.10;99.90;;;;;;6246655;23;20049;-87
2023/07/11 10:29:48;;;;;;;6.70;4.65;;;36.80;99.90;;;;;;6248588;23;20028;-89
2023/07/11 10:32:45;;;;;;;10.80;5.10;;;37.00;99.90;;;;;;6247411;23;20031;-87
2023/07/11 10:35:34;;;;;;;7.97;5.00;;;36.40;99.90;;;;;;6247747;23;20024;-86
2023/07/11 10:38:29;;;;;;;7.03;5.03;;;36.00;99.90;;;;;;6247094;23;20032;-87
2023/07/11 10:41:30;;;;;;;8.93;5.22;;;35.60;99.90;;;;;;6247719;23;20032;-87
2023/07/11 10:44:25;;;;;;;7.60;5.00;;;35.50;99.90;;;;;;6252736;23;20316;-88
2023/07/11 10:47:28;;;;;;;11.25;4.97;;;35.90;99.90;;;;;;6228839;23;20404;-88
2023/07/11 10:50:31;;;;;;;7.65;5.10;;;36.20;99.90;;;;;;6246990;23;20053;-89
2023/07/11 10:53:25;;;;;;;6.05;5.03;;;37.40;99.90;;;;;;6246086;23;20031;-87
2023/07/11 10:56:38;;;;;;;8.02;5.85;;;38.00;99.90;;;;;;6226666;23;20082;-88
2023/07/11 10:59:29;;;;;;;8.40;5.43;;;36.70;99.90;;;;;;6245881;23;20024;-88
2023/07/11 11:02:23;;;;;;;8.63;5.07;;;35.90;99.90;;;;;;6246402;23;20028;-86
2023/07/11 11:05:35;;;;;;;10.07;4.95;;;35.50;99.90;;;;;;6223656;23;20043;-88
2023/07/11 11:08:34;;;;;;;8.15;5.47;;;36.40;99.90;;;;;;6246017;23;20036;-87
2023/07/11 11:11:40;;;;;;;10.15;5.38;;;36.50;99.90;;;;;;6225310;23;20028;-85
2023/07/11 11:14:57;;;;;;;12.77;5.38;;;35.40;99.90;;;;;;6248086;23;20016;-89
2023/07/11 11:18:06;;;;;;;8.27;5.35;;;35.70;99.90;;;;;;6223519;23;20142;-88
2023/07/11 11:21:24;;;;;;;10.75;5.15;;;37.20;99.90;;;;;;6246087;23;20028;-88
2023/07/11 11:24:57;;;;;;;8.27;5.18;;;39.00;99.90;;;;;;6235622;23;20028;-87
2023/07/11 11:28:12;;;;;;;10.48;5.45;;;37.40;99.90;;;;;;6249797;23;20027;-88
2023/07/11 11:30:59;;;;;;;8.30;4.97;;;37.20;99.90;;;;;;6246512;23;20075;-83
2023/07/11 11:33:49;;;;;;;9.55;5.45;;;36.60;99.90;;;;;;6245892;23;20091;-89
2023/07/11 11:36:45;;;;;;;7.43;4.88;;;36.80;99.90;;;;;;6224046;23;20109;-86
2023/07/11 11:39:59;;;;;;;7.35;4.93;;;37.00;99.90;;;;;;6245520;23;20031;-85
2023/07/11 11:42:54;;;;;;;8.35;5.45;;;37.50;99.90;;;;;;6245944;23;20028;-86
2023/07/11 11:45:45;;;;;;;9.35;4.90;;;37.60;99.90;;;;;;6245796;23;20023;-88
2023/07/11 11:48:38;;;;;;;9.73;5.25;;;37.80;99.90;;;;;;6247336;23;20028;-87
2023/07/11 11:51:29;;;;;;;8.07;4.80;;;38.40;99.90;;;;;;6245966;23;20024;-87
2023/07/11 11:54:20;;;;;;;8.68;4.78;;;38.50;99.90;;;;;;6244738;23;20028;-87
2023/07/11 11:57:22;;;;;;;7.57;4.78;;;38.20;99.90;;;;;;6224470;23;20024;-89
2023/07/11 12:00:33;;;;;;;6.82;4.47;;;38.80;99.90;;;;;;6224010;23;20020;-88
2023/07/11 12:03:24;;;;;;;6.95;4.65;;;39.50;99.90;;;;;;6227040;23;20024;-88
2023/07/11 12:06:41;;;;;;;7.43;4.57;;;38.10;99.90;;;;;;6245768;23;20113;-84
2023/07/11 12:09:48;;;;;;;8.80;4.88;;;37.10;99.90;;;;;;6248358;23;20095;-88
2023/07/11 12:12:35;;;;;;;13.10;4.57;;;37.30;99.90;;;;;;6244906;23;20423;-86
2023/07/11 12:15:38;;;;;;;15.60;4.88;;;37.10;99.90;;;;;;6247560;23;20028;-85
2023/07/11 12:18:38;;;;;;;10.98;4.55;;;37.30;99.90;;;;;;6245791;23;20047;-86
2023/07/11 12:21:31;;;;;;;7.88;4.85;;;37.50;99.90;;;;;;6245721;23;20028;-86
2023/07/11 12:24:39;;;;;;;7.47;4.32;;;39.10;99.90;;;;;;6247674;23;20034;-87
2023/07/11 12:27:29;;;;;;;11.65;4.72;;;40.10;99.90;;;;;;6227230;23;20024;-86
2023/07/11 12:30:44;;;;;;;7.75;4.55;;;39.00;99.90;;;;;;6249052;23;20024;-85
2023/07/11 12:33:36;;;;;;;7.22;4.30;;;39.50;99.90;;;;;;6226096;23;20079;-86
2023/07/11 12:37:00;;;;;;;6.68;4.45;;;40.60;99.90;;;;;;6224601;23;20432;-87
2023/07/11 12:40:06;;;;;;;13.18;4.75;;;40.50;99.90;;;;;;6224508;23;20024;-88
2023/07/11 12:42:57;;;;;;;6.95;4.90;;;38.80;99.90;;;;;;6225212;23;20055;-88
2023/07/11 12:46:10;;;;;;;9.93;4.95;;;38.30;99.90;;;;;;6246410;23;20277;-87
2023/07/11 12:49:10;;;;;;;7.30;5.00;;;39.40;99.90;;;;;;6245231;23;20031;-86
2023/07/11 12:52:14;;;;;;;6.28;4.68;;;40.10;99.90;;;;;;6245471;23;20028;-90
2023/07/11 12:55:02;;;;;;;11.15;4.50;;;40.50;99.90;;;;;;6224311;23;20030;-89
2023/07/11 12:57:52;;;;;;;8.32;4.90;;;40.00;99.90;;;;;;6245595;23;20024;-84
2023/07/11 13:00:39;;;;;;;6.47;4.78;;;39.50;99.90;;;;;;6226521;23;20024;-84
2023/07/11 13:03:31;;;;;;;9.13;4.63;;;37.40;99.90;;;;;;6244951;23;20131;-85
2023/07/11 13:06:26;;;;;;;6.45;4.82;;;37.30;99.90;;;;;;6244972;23;20035;-86
2023/07/11 13:09:18;;;;;;;9.45;5.10;;;38.50;99.90;;;;;;6246958;23;20035;-86
2023/07/11 13:12:11;;;;;;;7.07;4.65;;;38.90;99.90;;;;;;6244827;23;20024;-87
2023/07/11 13:15:23;;;;;;;11.60;4.53;;;39.50;99.90;;;;;;6222989;23;20435;-86
2023/07/11 13:18:29;;;;;;;7.10;4.82;;;40.60;99.90;;;;;;6244273;23;20431;-85
2023/07/11 13:21:19;;;;;;;6.18;4.47;;;41.00;99.90;;;;;;6217025;23;20035;-86
2023/07/11 13:24:14;;;;;;;7.90;5.10;;;40.80;99.90;;;;;;6214284;23;20029;-85
2023/07/11 13:27:05;;;;;;;8.00;5.47;;;40.20;99.90;;;;;;6194405;23;20102;-86
2023/07/11 13:29:54;;;;;;;8.88;5.72;;;39.60;99.90;;;;;;6192116;23;20111;-86
2023/07/11 13:32:43;;;;;;;10.38;6.22;;;39.30;99.90;;;;;;6215275;23;20546;-86
2023/07/11 13:35:33;;;;;;;8.90;6.03;;;38.20;99.90;;;;;;6215632;23;20021;-86
2023/07/11 13:38:33;;;;;;;7.72;6.38;;;38.40;99.90;;;;;;6216719;23;20035;-87
2023/07/11 13:41:36;;;;;;;12.10;7.18;;;39.10;99.90;;;;;;6197201;23;20056;-88
2023/07/11 13:44:36;;;;;;;9.63;6.88;;;38.90;99.90;;;;;;6217021;23;20038;-89
2023/07/11 13:47:40;;;;;;;10.18;6.95;;;38.50;99.90;;;;;;6216009;23;20029;-84
2023/07/11 13:50:30;;;;;;;11.52;6.10;;;38.40;99.90;;;;;;6193376;23;20079;-87
2023/07/11 13:53:37;;;;;;;12.15;6.40;;;38.60;99.90;;;;;;6187657;23;20045;-91
2023/07/11 13:56:28;;;;;;;9.70;6.10;;;38.70;99.90;;;;;;6169353;23;20036;-89
2023/07/11 13:59:18;;;;;;;11.00;7.53;;;39.00;99.90;;;;;;6193417;23;20259;-91
2023/07/11 14:02:28;;;;;;;16.77;6.93;;;39.80;99.90;;;;;;6187087;23;20048;-89
2023/07/11 14:05:28;;;;;;;10.13;6.28;;;40.60;99.90;;;;;;6166174;23;20029;-90
2023/07/11 14:08:17;;;;;;;8.57;6.38;;;40.80;99.90;;;;;;6189182;23;20338;-90
2023/07/11 14:11:29;;;;;;;9.10;6.15;;;40.50;99.90;;;;;;6187678;23;20087;-90
2023/07/11 14:14:22;;;;;;;8.75;6.10;;;40.30;99.90;;;;;;6175184;23;20021;-90
2023/07/11 14:17:25;;;;;;;10.43;5.90;;;40.50;99.90;;;;;;6187537;23;20076;-88
2023/07/11 14:20:21;;;;;;;8.93;6.38;;;41.50;99.90;;;;;;6186995;23;20025;-89
2023/07/11 14:23:25;;;;;;;8.32;6.00;;;41.60;99.90;;;;;;6188819;23;20029;-90
2023/07/11 14:26:14;;;;;;;7.88;6.00;;;39.90;99.90;;;;;;6188055;23;20025;-92
2023/07/11 14:29:02;;;;;;;12.60;6.90;;;40.00;99.90;;;;;;6189529;23;20021;-93
2023/07/11 14:31:51;;;;;;;11.00;6.45;;;39.40;99.90;;;;;;6168255;23;20033;-93
2023/07/11 14:34:39;;;;;;;11.57;6.35;;;39.70;99.90;;;;;;6189854;23;20029;-89
2023/07/11 14:37:27;;;;;;;14.05;7.32;;;38.60;99.90;;;;;;6166768;23;20111;-92
2023/07/11 14:40:18;;;;;;;9.07;6.75;;;38.20;99.90;;;;;;6190238;23;20113;-93
2023/07/11 14:43:22;;;;;;;13.55;6.97;;;37.50;99.90;;;;;;6186471;23;20028;-90
2023/07/11 14:46:10;;;;;;;12.32;7.03;;;37.70;99.90;;;;;;6169548;23;20043;-89
2023/07/11 14:48:59;;;;;;;9.93;6.25;;;38.60;99.90;;;;;;6189063;23;20025;-89
2023/07/11 14:51:50;;;;;;;7.75;6.25;;;38.30;99.90;;;;;;6165588;23;20025;-94
2023/07/11 14:54:40;;;;;;;9.95;7.00;;;39.00;99.90;;;;;;6190112;23;20416;-89
2023/07/11 14:57:50;;;;;;;10.88;8.10;;;37.70;99.90;;;;;;6189499;23;20025;-90
2023/07/11 15:00:40;;;;;;;9.65;7.07;;;38.10;99.90;;;;;;6186859;23;20035;-89